Time;durP1;ratioP1;P1;durP2;ratioP2;P2;SDS_P1;SDS_P2;PMS_P1;PMS_P2;Temp;Humidity;BMP_temperature;BMP_pressure;BME280_temperature;BME280_humidity;BME280_pressure;Samples;Min_cycle;Max_cycle;Signal;HPM_P1;HPM_P2
2023/07/29 00:02:26;;;;;;;5.88;5.57;;;;;;;18.37;100.00;100407.22;6175780;23;20040;-71
2023/07/29 00:04:52;;;;;;;6.28;5.78;;;;;;;18.48;100.00;100433.63;6191401;23;20016;-71
2023/07/29 00:07:19;;;;;;;6.05;5.75;;;;;;;18.60;100.00;100445.84;6147612;23;20667;-71
2023/07/29 00:09:45;;;;;;;6.28;5.90;;;;;;;18.59;100.00;100438.84;6167178;23;20028;-72
2023/07/29 00:12:12;;;;;;;6.20;5.80;;;;;;;18.38;100.00;100404.44;6176079;23;20148;-71
2023/07/29 00:14:41;;;;;;;6.05;5.75;;;;;;;18.53;100.00;100432.25;6170017;23;20444;-71
2023/07/29 00:17:07;;;;;;;6.65;6.15;;;;;;;18.49;100.00;100430.03;6157095;23;20028;-71
2023/07/29 00:19:34;;;;;;;7.40;6.90;;;;;;;18.44;100.00;100419.81;6174743;23;20021;-71
2023/07/29 00:22:00;;;;;;;8.48;7.78;;;;;;;18.07;100.00;100366.47;6153762;23;20456;-71
2023/07/29 00:24:27;;;;;;;8.65;7.88;;;;;;;18.44;100.00;100419.81;6165327;23;20024;-71
2023/07/29 00:26:53;;;;;;;8.50;7.80;;;;;;;18.45;100.00;100426.78;6173188;23;20174;-71
2023/07/29 00:29:22;;;;;;;7.95;7.35;;;;;;;18.43;100.00;100430.56;6175498;23;20079;-71
2023/07/29 00:31:48;;;;;;;10.65;7.10;;;;;;;18.39;100.00;100427.34;6153495;23;20024;-71
2023/07/29 00:34:19;;;;;;;6.47;6.07;;;;;;;18.35;100.00;100431.25;6146032;23;20033;-71
2023/07/29 00:36:46;;;;;;;7.03;6.53;;;;;;;17.93;100.00;100373.00;6168145;23;20099;-71
2023/07/29 00:39:12;;;;;;;6.68;6.28;;;;;;;18.27;100.00;100434.59;6143885;23;20020;-71
2023/07/29 00:41:39;;;;;;;6.40;6.00;;;;;;;18.11;100.00;100407.72;6169848;23;20024;-71
2023/07/29 00:44:06;;;;;;;6.85;6.45;;;;;;;18.03;100.00;100399.59;6155909;23;20079;-71
2023/07/29 00:46:34;;;;;;;6.07;5.78;;;;;;;18.14;100.00;100428.66;6150699;23;20028;-73
2023/07/29 00:49:01;;;;;;;6.22;5.82;;;;;;;17.73;100.00;100386.19;6172054;23;20095;-69
2023/07/29 00:51:28;;;;;;;6.20;5.80;;;;;;;17.80;100.00;100394.47;6168088;23;20013;-71
2023/07/29 00:53:54;;;;;;;6.20;5.80;;;;;;;17.94;100.00;100418.00;6149160;23;20044;-71
2023/07/29 00:56:21;;;;;;;5.88;5.57;;;;;;;17.92;100.00;100406.69;6171970;23;20016;-71
2023/07/29 00:58:47;;;;;;;6.22;5.80;;;;;;;17.86;100.00;100393.97;6149593;23;20024;-71
2023/07/29 01:01:14;;;;;;;6.70;6.30;;;;;;;18.05;100.00;100411.75;6172585;23;20040;-71
2023/07/29 01:03:41;;;;;;;6.78;6.28;;;;;;;18.09;100.00;100433.56;6149126;23;20033;-71
2023/07/29 01:06:22;;;;;;;5.95;5.65;;;;;;;18.08;100.00;100423.91;6170279;23;20024;-71
2023/07/29 01:09:04;;;;;;;6.05;5.72;;;;;;;18.08;100.00;100422.13;6154410;23;20041;-71
2023/07/29 01:11:42;;;;;;;5.68;5.38;;;;;;;18.08;100.00;100410.63;6191347;23;20623;-71
2023/07/29 01:14:30;;;;;;;6.05;5.75;;;;;;;18.06;100.00;100410.78;6148264;23;20097;-70
2023/07/29 01:17:01;;;;;;;5.90;5.60;;;;;;;17.74;100.00;100366.63;6169962;23;20601;-70
2023/07/29 01:19:53;;;;;;;5.82;5.43;;;;;;;18.00;100.00;100406.03;6175781;23;20024;-70
2023/07/29 01:22:21;;;;;;;5.80;5.40;;;;;;;17.44;100.00;100330.34;6169964;23;20032;-69
2023/07/29 01:24:47;;;;;;;6.32;5.78;;;;;;;17.56;100.00;100360.28;6161193;23;20088;-70
2023/07/29 01:27:14;;;;;;;6.40;6.00;;;;;;;17.92;100.00;100414.66;6165102;23;20021;-70
2023/07/29 01:29:41;;;;;;;6.15;5.75;;;;;;;17.88;100.00;100412.38;6148363;23;20016;-70
2023/07/29 01:32:33;;;;;;;6.60;5.85;;;;;;;17.94;100.00;100417.16;6166832;23;20005;-72
2023/07/29 01:35:15;;;;;;;6.28;5.88;;;;;;;17.95;100.00;100426.81;6137941;23;20141;-70
2023/07/29 01:37:47;;;;;;;6.93;6.45;;;;;;;17.97;100.00;100432.81;6165891;23;20027;-69
2023/07/29 01:40:14;;;;;;;6.07;5.68;;;;;;;17.89;100.00;100414.91;6172247;23;20024;-70
2023/07/29 01:42:41;;;;;;;6.10;5.78;;;;;;;17.87;100.00;100413.38;6168634;23;20044;-69
2023/07/29 01:45:08;;;;;;;6.28;5.88;;;;;;;18.03;100.00;100420.84;6169403;23;20068;-70
2023/07/29 01:47:34;;;;;;;6.28;5.70;;;;;;;17.69;100.00;100357.38;6169623;23;20037;-70
2023/07/29 01:50:01;;;;;;;6.13;5.72;;;;;;;17.94;100.00;100407.41;6151116;23;20021;-70
2023/07/29 01:52:27;;;;;;;6.25;5.85;;;;;;;18.10;100.00;100412.19;6167444;23;20044;-70
2023/07/29 01:54:53;;;;;;;6.40;6.00;;;;;;;18.11;100.00;100407.72;6144025;23;20034;-69
2023/07/29 01:57:20;;;;;;;5.93;5.53;;;;;;;18.13;100.00;100411.06;6171154;23;20095;-69
2023/07/29 01:59:46;;;;;;;6.18;5.78;;;;;;;17.88;100.00;100360.16;6142251;23;20689;-70
2023/07/29 02:02:13;;;;;;;6.07;5.72;;;;;;;17.89;100.00;100361.81;6173420;23;20017;-71
2023/07/29 02:04:39;;;;;;;5.97;5.57;;;;;;;17.68;100.00;100313.22;6174236;23;20028;-70
2023/07/29 02:07:06;;;;;;;5.78;5.47;;;;;;;18.16;100.00;100394.84;6176029;23;20033;-70
2023/07/29 02:09:32;;;;;;;6.30;5.75;;;;;;;18.10;100.00;100401.56;6171034;23;20606;-72
2023/07/29 02:11:59;;;;;;;6.47;6.05;;;;;;;17.74;100.00;100341.91;6144927;23;20029;-70
2023/07/29 02:14:25;;;;;;;6.13;5.60;;;;;;;18.13;100.00;100411.91;6172517;23;20021;-71
2023/07/29 02:16:51;;;;;;;5.70;5.40;;;;;;;18.06;100.00;100396.66;6155201;23;20031;-70
2023/07/29 02:19:18;;;;;;;5.65;5.35;;;;;;;17.94;100.00;100383.50;6174663;23;20025;-70
2023/07/29 02:21:45;;;;;;;5.78;5.47;;;;;;;18.16;100.00;100408.13;6155186;23;20084;-70
2023/07/29 02:24:11;;;;;;;5.72;5.20;;;;;;;18.02;100.00;100388.13;6173609;23;20517;-70
2023/07/29 02:26:37;;;;;;;5.90;5.55;;;;;;;18.16;100.00;100405.47;6158900;23;20021;-70
2023/07/29 02:29:04;;;;;;;5.80;5.50;;;;;;;18.22;100.00;100404.97;6176922;23;20028;-70
2023/07/29 02:31:30;;;;;;;5.88;5.38;;;;;;;18.05;100.00;100376.41;6178529;23;20072;-70
2023/07/29 02:33:57;;;;;;;5.65;5.35;;;;;;;18.20;100.00;100393.63;6170870;23;20028;-70
2023/07/29 02:36:23;;;;;;;5.53;5.22;;;;;;;17.41;100.00;100256.34;6173160;23;20121;-71
2023/07/29 02:38:50;;;;;;;6.22;5.72;;;;;;;18.08;100.00;100363.69;6147564;23;20032;-70
2023/07/29 02:41:16;;;;;;;5.65;5.35;;;;;;;17.90;100.00;100341.41;6177989;23;20024;-71
2023/07/29 02:43:47;;;;;;;5.68;5.38;;;;;;;18.25;100.00;100387.91;6173954;23;20027;-70
2023/07/29 02:46:13;;;;;;;5.78;5.20;;;;;;;18.23;100.00;100393.34;6173354;23;20013;-70
2023/07/29 02:48:40;;;;;;;5.70;5.40;;;;;;;18.25;100.00;100394.03;6175475;23;20564;-70
2023/07/29 02:51:07;;;;;;;5.70;5.40;;;;;;;18.25;100.00;100396.69;6146574;23;20020;-73
2023/07/29 02:53:36;;;;;;;5.80;5.50;;;;;;;18.20;100.00;100390.09;6156546;23;20031;-70
2023/07/29 02:56:03;;;;;;;5.78;5.35;;;;;;;17.82;100.00;100328.81;6171621;23;20109;-70
2023/07/29 02:58:30;;;;;;;5.78;5.47;;;;;;;17.92;100.00;100344.75;6170239;23;20589;-70
2023/07/29 03:01:04;;;;;;;6.10;5.45;;;;;;;17.88;100.00;100338.91;6153843;23;20013;-71
2023/07/29 03:03:31;;;;;;;5.93;5.55;;;;;;;18.21;100.00;100400.59;6174831;23;20399;-72
2023/07/29 03:06:01;;;;;;;5.97;5.57;;;;;;;17.96;100.00;100362.13;6144131;23;20086;-71
2023/07/29 03:08:27;;;;;;;5.75;5.45;;;;;;;18.09;100.00;100383.94;6143533;23;20050;-71
2023/07/29 03:10:55;;;;;;;6.57;5.72;;;;;;;18.19;100.00;100397.25;6172599;23;20009;-70
2023/07/29 03:13:21;;;;;;;5.75;5.40;;;;;;;18.20;100.00;100390.97;6153181;23;20730;-70
2023/07/29 03:15:48;;;;;;;5.70;5.40;;;;;;;17.88;100.00;100360.16;6168490;23;20051;-70
2023/07/29 03:18:15;;;;;;;5.57;5.28;;;;;;;18.03;100.00;100367.72;6145557;23;20044;-71
2023/07/29 03:20:42;;;;;;;5.70;5.40;;;;;;;17.94;100.00;100342.81;6154501;23;20099;-71
2023/07/29 03:23:08;;;;;;;5.60;5.30;;;;;;;16.72;100.00;100137.75;6196213;23;20648;-71
2023/07/29 03:25:35;;;;;;;5.90;5.50;;;;;;;18.06;100.00;100370.94;6174530;23;20076;-70
2023/07/29 03:28:01;;;;;;;5.63;5.22;;;;;;;18.19;100.00;100383.13;6171647;23;20623;-70
2023/07/29 03:30:27;;;;;;;5.60;5.30;;;;;;;18.01;100.00;100348.44;6171641;23;20020;-71
2023/07/29 03:32:54;;;;;;;5.95;5.55;;;;;;;18.20;100.00;100375.03;6145203;23;20020;-70
2023/07/29 03:35:20;;;;;;;5.65;5.35;;;;;;;18.13;100.00;100361.44;6175033;23;20016;-71
2023/07/29 03:37:47;;;;;;;5.65;5.35;;;;;;;18.14;100.00;100365.78;6164094;23;20005;-70
2023/07/29 03:40:14;;;;;;;5.55;5.25;;;;;;;17.93;100.00;100352.59;6178358;23;20463;-70
2023/07/29 03:42:40;;;;;;;5.60;5.30;;;;;;;18.01;100.00;100369.69;6143914;23;20484;-71
2023/07/29 03:45:07;;;;;;;6.55;5.80;;;;;;;18.10;100.00;100398.91;6169992;23;20005;-71
2023/07/29 03:47:33;;;;;;;5.95;5.63;;;;;;;18.08;100.00;100397.34;6149809;23;20025;-70
2023/07/29 03:50:00;;;;;;;6.45;5.90;;;;;;;18.05;100.00;100393.16;6172209;23;20035;-70
2023/07/29 03:52:26;;;;;;;6.00;5.60;;;;;;;18.06;100.00;100400.16;6145251;23;20055;-70
2023/07/29 03:54:52;;;;;;;6.32;5.80;;;;;;;17.28;100.00;100280.44;6169583;23;20027;-71
2023/07/29 03:57:19;;;;;;;13.63;5.60;;;;;;;17.51;100.00;100325.34;6152629;23;20108;-71
2023/07/29 03:59:45;;;;;;;5.70;5.40;;;;;;;17.15;100.00;100256.78;6174541;23;20647;-71
2023/07/29 04:02:12;;;;;;;5.35;5.05;;;;;;;18.03;100.00;100396.94;6175143;23;20041;-70
2023/07/29 04:04:38;;;;;;;6.30;5.80;;;;;;;18.01;100.00;100398.88;6146368;23;20392;-71
2023/07/29 04:07:05;;;;;;;5.82;5.53;;;;;;;17.99;100.00;100419.41;6173031;22;20748;-71
2023/07/29 04:09:32;;;;;;;5.80;5.47;;;;;;;17.77;100.00;100394.72;6175177;23;20498;-71
2023/07/29 04:11:59;;;;;;;6.22;5.88;;;;;;;17.78;100.00;100400.84;6139437;23;20023;-71
2023/07/29 04:14:25;;;;;;;6.20;5.70;;;;;;;17.59;100.00;100365.31;6165003;23;20533;-71
2023/07/29 04:16:51;;;;;;;5.70;5.40;;;;;;;17.95;100.00;100432.13;6145002;23;20080;-70
2023/07/29 04:19:18;;;;;;;6.38;5.78;;;;;;;17.90;100.00;100432.53;6166795;23;20024;-71
2023/07/29 04:21:46;;;;;;;5.72;5.32;;;;;;;17.87;100.00;100431.97;6144797;23;20041;-71
2023/07/29 04:24:12;;;;;;;5.65;5.35;;;;;;;17.66;100.00;100403.63;6169380;23;20069;-71
2023/07/29 04:26:39;;;;;;;5.85;5.55;;;;;;;17.83;100.00;100442.00;6170320;23;20029;-72
2023/07/29 04:29:05;;;;;;;6.38;5.80;;;;;;;17.85;100.00;100453.31;6160064;23;20016;-71
2023/07/29 04:31:32;;;;;;;5.60;5.30;;;;;;;17.66;100.00;100418.69;6171067;23;20031;-71
2023/07/29 04:33:58;;;;;;;5.60;5.30;;;;;;;17.68;100.00;100416.75;6141275;23;20036;-72
2023/07/29 04:36:25;;;;;;;8.40;5.95;;;;;;;17.48;100.00;100400.75;6169931;23;20021;-71
2023/07/29 04:38:51;;;;;;;6.00;5.70;;;;;;;17.73;100.00;100449.03;6144390;23;20361;-73
2023/07/29 04:41:18;;;;;;;11.90;5.93;;;;;;;17.57;100.00;100412.38;6164116;23;20372;-71
2023/07/29 04:43:44;;;;;;;6.13;5.72;;;;;;;17.89;100.00;100465.34;6150896;23;20021;-71
2023/07/29 04:46:10;;;;;;;6.25;5.78;;;;;;;17.92;100.00;100467.75;6173164;23;20741;-71
2023/07/29 04:48:37;;;;;;;5.90;5.60;;;;;;;17.95;100.00;100471.94;6145653;23;20045;-71
2023/07/29 04:51:03;;;;;;;5.80;5.47;;;;;;;17.71;100.00;100411.19;6165383;23;20031;-71
2023/07/29 04:53:30;;;;;;;6.70;5.75;;;;;;;17.92;100.00;100427.94;6142100;23;20032;-71
2023/07/29 04:55:56;;;;;;;6.35;5.85;;;;;;;18.16;100.00;100461.25;6169808;23;20076;-72
2023/07/29 04:58:22;;;;;;;6.63;5.55;;;;;;;18.23;100.00;100442.97;6141225;23;20039;-71
2023/07/29 05:00:49;;;;;;;6.35;5.95;;;;;;;18.10;100.00;100401.56;6169708;23;20035;-71
2023/07/29 05:03:16;;;;;;;6.15;5.70;;;;;;;18.04;100.00;100367.59;6174488;23;20020;-70
2023/07/29 05:05:42;;;;;;;6.35;5.95;;;;;;;18.40;100.00;100401.59;6164457;23;20013;-71
2023/07/29 05:08:08;;;;;;;5.85;5.50;;;;;;;18.46;100.00;100404.56;6139350;23;20412;-71
2023/07/29 05:10:37;;;;;;;6.18;5.80;;;;;;;18.11;100.00;100343.97;6171730;23;20016;-70
2023/07/29 05:13:04;;;;;;;6.32;5.93;;;;;;;18.57;100.00;100403.59;6165262;23;20017;-72
2023/07/29 05:15:30;;;;;;;6.30;5.90;;;;;;;18.61;100.00;100405.00;6186190;23;20098;-72
2023/07/29 05:17:57;;;;;;;6.30;5.90;;;;;;;18.44;100.00;100376.44;6167658;23;20458;-70
2023/07/29 05:20:23;;;;;;;6.50;6.10;;;;;;;18.63;100.00;100381.75;6149912;23;20365;-71
2023/07/29 05:22:49;;;;;;;6.20;5.70;;;;;;;18.76;100.00;100393.94;6168545;23;20024;-70
2023/07/29 05:25:16;;;;;;;6.22;5.80;;;;;;;18.29;100.00;100321.06;6174662;23;20130;-70
2023/07/29 05:27:42;;;;;;;6.75;6.32;;;;;;;18.71;100.00;100392.53;6168814;23;20032;-71
2023/07/29 05:30:09;;;;;;;5.90;5.60;;;;;;;18.64;100.00;100396.75;6139206;23;20028;-70
2023/07/29 05:32:35;;;;;;;6.07;5.68;;;;;;;18.55;100.00;100373.66;6172353;23;20032;-71
2023/07/29 05:35:02;;;;;;;9.65;6.05;;;;;;;18.56;100.00;100391.25;6142656;23;20031;-70
2023/07/29 05:37:28;;;;;;;6.90;6.30;;;;;;;18.29;100.00;100355.59;6173701;23;20729;-71
2023/07/29 05:39:55;;;;;;;6.88;6.15;;;;;;;18.18;100.00;100318.56;6141935;23;20025;-70
2023/07/29 05:42:23;;;;;;;6.03;5.63;;;;;;;18.09;100.00;100309.59;6173821;23;20602;-71
2023/07/29 05:44:50;;;;;;;6.72;6.07;;;;;;;18.53;100.00;100392.38;6143537;23;20056;-70
2023/07/29 05:47:16;;;;;;;7.00;6.40;;;;;;;18.42;100.00;100395.19;6168462;23;20399;-70
2023/07/29 05:49:43;;;;;;;6.32;5.93;;;;;;;18.10;100.00;100337.84;6141821;23;20076;-70
2023/07/29 05:52:09;;;;;;;6.90;6.07;;;;;;;18.53;100.00;100412.81;6168844;23;20024;-71
2023/07/29 05:54:35;;;;;;;6.22;5.82;;;;;;;18.51;100.00;100412.13;6145928;23;20035;-71
2023/07/29 05:57:02;;;;;;;6.10;5.70;;;;;;;18.21;100.00;100358.09;6163632;23;20227;-70
2023/07/29 05:59:29;;;;;;;7.15;5.65;;;;;;;18.09;100.00;100335.31;6146557;23;20477;-71
2023/07/29 06:01:56;;;;;;;7.60;6.28;;;;;;;18.47;100.00;100395.59;6169765;23;20091;-71
2023/07/29 06:04:24;;;;;;;6.18;5.63;;;;;;;18.66;100.00;100418.72;6188727;23;20016;-70
2023/07/29 06:06:51;;;;;;;5.88;5.50;;;;;;;18.56;100.00;100415.19;6143293;23;20023;-70
2023/07/29 06:09:17;;;;;;;5.97;5.57;;;;;;;18.56;100.00;100406.38;6169361;23;20030;-70
2023/07/29 06:11:44;;;;;;;7.47;5.50;;;;;;;18.57;100.00;100400.94;6160404;23;20574;-70
2023/07/29 06:14:10;;;;;;;6.00;5.70;;;;;;;18.64;100.00;100395.88;6172268;23;20021;-70
2023/07/29 06:16:39;;;;;;;5.60;5.30;;;;;;;18.66;100.00;100385.97;6163476;23;20695;-71
2023/07/29 06:19:08;;;;;;;6.07;5.75;;;;;;;18.68;100.00;100390.19;6138624;23;20092;-70
2023/07/29 06:21:35;;;;;;;5.70;5.40;;;;;;;18.77;100.00;100391.13;6169974;23;20017;-70
2023/07/29 06:24:01;;;;;;;5.72;5.43;;;;;;;18.48;100.00;100336.19;6173289;23;20055;-70
2023/07/29 06:26:28;;;;;;;5.45;5.15;;;;;;;18.47;100.00;100331.84;6167631;23;20545;-70
2023/07/29 06:28:54;;;;;;;5.68;5.38;;;;;;;18.80;100.00;100382.91;6151921;23;20028;-70
2023/07/29 06:31:20;;;;;;;5.80;5.50;;;;;;;18.55;100.00;100352.41;6166214;23;20020;-70
2023/07/29 06:33:47;;;;;;;5.95;5.65;;;;;;;18.62;100.00;100358.84;6151820;23;20078;-70
2023/07/29 06:36:16;;;;;;;6.57;5.90;;;;;;;18.66;100.00;100368.22;6170371;23;20080;-71
2023/07/29 06:38:42;;;;;;;6.20;5.80;;;;;;;18.73;100.00;100374.63;6172162;23;20483;-70
2023/07/29 06:41:08;;;;;;;6.50;6.03;;;;;;;18.75;100.00;100382.47;6167744;23;20012;-70
2023/07/29 06:43:39;;;;;;;6.50;6.00;;;;;;;18.79;100.00;100370.59;6190463;23;20012;-72
2023/07/29 06:46:05;;;;;;;6.15;5.80;;;;;;;18.12;100.00;100260.66;6164743;23;20080;-72
2023/07/29 06:48:32;;;;;;;6.50;5.93;;;;;;;18.37;100.00;100301.78;6142814;23;20048;-70
2023/07/29 06:51:00;;;;;;;6.25;5.85;;;;;;;18.56;100.00;100332.78;6150193;23;20552;-71
2023/07/29 06:53:27;;;;;;;6.60;6.00;;;;;;;18.61;100.00;100332.41;6177476;23;20024;-70
2023/07/29 06:55:53;;;;;;;6.35;5.95;;;;;;;18.68;100.00;100331.69;6145124;23;20030;-70
2023/07/29 06:58:21;;;;;;;6.15;5.75;;;;;;;18.89;100.00;100350.16;6164210;23;20036;-70
2023/07/29 07:00:47;;;;;;;6.68;6.18;;;;;;;19.03;100.00;100350.69;6146148;23;20376;-71
2023/07/29 07:03:14;;;;;;;6.63;6.00;;;;;;;18.82;100.00;100279.94;6176561;23;20646;-71
2023/07/29 07:05:40;;;;;;;6.15;5.65;;;;;;;19.47;100.00;100327.03;6145975;23;20121;-71
2023/07/29 07:08:07;;;;;;;6.47;6.07;;;;;;;19.44;100.00;100271.41;6194709;23;20093;-71
2023/07/29 07:10:33;;;;;;;6.05;5.65;;;;;;;19.92;100.00;100304.94;6147357;23;20017;-70
2023/07/29 07:13:00;;;;;;;6.10;5.75;;;;;;;19.88;100.00;100256.47;6156464;23;20016;-72
2023/07/29 07:15:26;;;;;;;6.10;5.70;;;;;;;19.93;100.00;100195.59;6177028;23;20087;-70
2023/07/29 07:17:53;;;;;;;5.90;5.50;;;;;;;19.65;100.00;100132.75;6175069;23;20052;-70
2023/07/29 07:20:19;;;;;;;6.20;5.80;;;;;;;20.43;100.00;100190.66;6147809;23;20025;-71
2023/07/29 07:22:45;;;;;;;6.15;5.80;;;;;;;20.44;100.00;100171.00;6168907;23;20035;-70
2023/07/29 07:25:12;;;;;;;6.10;5.70;;;;;;;20.43;100.00;100148.84;6143873;23;20005;-70
2023/07/29 07:27:38;;;;;;;5.90;5.50;;;;;;;20.33;100.00;100116.16;6167830;23;20052;-72
2023/07/29 07:30:05;;;;;;;6.43;5.93;;;;;;;20.60;100.00;100156.97;6153002;23;20106;-70
2023/07/29 07:32:32;;;;;;;6.10;5.70;;;;;;;20.54;100.00;100142.41;6169236;23;20055;-70
2023/07/29 07:34:59;;;;;;;6.10;5.70;;;;;;;20.22;100.00;100087.09;6147082;23;20041;-71
2023/07/29 07:37:25;;;;;;;5.80;5.50;;;;;;;20.63;100.00;100135.34;6171020;23;20029;-71
2023/07/29 07:39:51;;;;;;;5.78;5.47;;;;;;;20.19;100.00;100055.44;6177137;23;20039;-70
2023/07/29 07:42:18;;;;;;;6.07;5.78;;;;;;;20.56;97.95;100084.44;6141296;23;20074;-71
2023/07/29 07:44:44;;;;;;;5.90;5.60;;;;;;;20.72;98.42;100105.03;6173533;23;20036;-71
2023/07/29 07:47:11;;;;;;;5.82;5.53;;;;;;;20.70;99.08;100104.34;6141788;23;20025;-71
2023/07/29 07:49:37;;;;;;;6.03;5.63;;;;;;;20.45;96.53;100058.06;6174725;23;20032;-71
2023/07/29 07:52:04;;;;;;;6.40;5.90;;;;;;;20.07;95.32;99998.94;6147393;23;20025;-70
2023/07/29 07:54:30;;;;;;;5.82;5.50;;;;;;;20.39;95.99;100059.53;6173508;23;20020;-71
2023/07/29 07:56:57;;;;;;;5.75;5.45;;;;;;;20.30;95.58;100036.50;6173767;23;20077;-71
2023/07/29 07:59:23;;;;;;;5.75;5.45;;;;;;;19.95;95.08;99989.56;6153949;23;21227;-72
2023/07/29 08:01:50;;;;;;;5.80;5.50;;;;;;;19.55;97.89;99980.28;6145094;23;20076;-72
2023/07/29 08:04:16;;;;;;;5.90;5.60;;;;;;;19.99;95.66;100060.97;6176236;23;20028;-71
2023/07/29 08:06:42;;;;;;;5.60;5.30;;;;;;;19.72;95.42;100016.69;6169931;23;20038;-71
2023/07/29 08:09:09;;;;;;;5.93;5.30;;;;;;;20.02;96.71;100035.84;6147646;23;20049;-71
2023/07/29 08:11:35;;;;;;;5.72;5.43;;;;;;;20.09;96.03;100023.59;6170243;23;20027;-72
2023/07/29 08:14:02;;;;;;;6.28;5.88;;;;;;;20.68;91.93;100007.69;6146003;23;20009;-71
2023/07/29 08:16:28;;;;;;;5.55;5.25;;;;;;;21.08;92.62;100046.94;6176004;23;20045;-71
2023/07/29 08:18:55;;;;;;;11.10;10.50;;;;;;;20.57;87.81;99880.00;6155506;23;20021;-72
2023/07/29 08:21:21;;;;;;;6.32;5.85;;;;;;;21.65;88.59;100011.47;6047438;23;20033;-73
2023/07/29 08:23:49;;;;;;;7.05;6.32;;;;;;;21.95;86.60;99986.84;6143641;23;20114;-72
2023/07/29 08:26:16;;;;;;;6.20;5.90;;;;;;;21.95;82.38;99915.56;6151631;23;20020;-71
2023/07/29 08:28:43;;;;;;;5.70;5.40;;;;;;;22.07;81.40;99907.97;6171093;23;20021;-73
2023/07/29 08:31:09;;;;;;;7.30;6.78;;;;;;;22.19;80.49;99879.88;6169051;23;20029;-70
2023/07/29 08:33:36;;;;;;;6.95;6.15;;;;;;;22.22;75.73;99761.91;6175476;23;20024;-71
2023/07/29 08:36:03;;;;;;;6.50;6.10;;;;;;;22.48;74.31;99779.47;6174041;23;20509;-71
2023/07/29 08:38:29;;;;;;;6.20;5.80;;;;;;;22.34;72.83;99737.47;6156757;23;20052;-72
2023/07/29 08:41:21;;;;;;;5.80;5.50;;;;;;;22.17;73.29;99720.69;6149165;23;20015;-70
2023/07/29 08:44:11;;;;;;;6.60;5.50;;;;;;;22.24;76.18;99824.06;6198796;23;20627;-70
2023/07/29 08:46:40;;;;;;;6.10;5.60;;;;;;;21.81;75.90;99770.22;6144797;23;20417;-70
2023/07/29 08:49:07;;;;;;;6.00;5.60;;;;;;;21.55;75.97;99761.66;6172912;23;20569;-70
2023/07/29 08:51:35;;;;;;;5.80;5.50;;;;;;;21.47;73.35;99695.81;6150078;23;20051;-72
2023/07/29 08:54:02;;;;;;;6.57;6.07;;;;;;;21.66;76.25;99820.03;6172193;23;20105;-71
2023/07/29 08:56:30;;;;;;;5.65;5.32;;;;;;;21.56;74.20;99774.03;6140454;23;20029;-70
2023/07/29 08:58:57;;;;;;;6.85;6.15;;;;;;;21.91;75.21;99813.56;6171291;23;20047;-71
2023/07/29 09:01:24;;;;;;;6.38;5.88;;;;;;;21.88;73.21;99773.84;6149499;23;20470;-70
2023/07/29 09:03:50;;;;;;;5.80;5.50;;;;;;;20.80;74.94;99640.22;6170786;23;20020;-70
2023/07/29 09:06:18;;;;;;;5.82;5.43;;;;;;;21.86;77.54;99866.66;6149582;23;20108;-70
2023/07/29 09:08:45;;;;;;;5.70;5.40;;;;;;;22.02;76.56;99860.41;6165208;23;20526;-70
2023/07/29 09:11:14;;;;;;;6.35;5.47;;;;;;;22.24;74.33;99828.59;6171024;23;20083;-70
2023/07/29 09:13:40;;;;;;;5.90;5.60;;;;;;;22.14;72.37;99755.81;6170305;23;20087;-71
2023/07/29 09:16:07;;;;;;;5.75;5.45;;;;;;;22.62;73.22;99802.72;6153013;23;20103;-71
2023/07/29 09:18:34;;;;;;;5.75;5.35;;;;;;;22.56;69.36;99691.16;6173360;23;20146;-71
2023/07/29 09:21:03;;;;;;;5.82;5.53;;;;;;;23.15;69.82;99778.66;6174098;23;20013;-70
2023/07/29 09:23:41;;;;;;;5.90;5.60;;;;;;;22.85;70.30;99791.16;6166862;23;20030;-70
2023/07/29 09:26:08;;;;;;;7.38;5.50;;;;;;;22.78;69.02;99728.72;6142071;23;20005;-71
2023/07/29 09:28:39;;;;;;;5.82;5.53;;;;;;;22.95;67.53;99724.81;6169504;23;20029;-72
2023/07/29 09:31:06;;;;;;;5.70;5.40;;;;;;;23.55;68.78;99815.84;6151260;23;20076;-71
2023/07/29 09:33:37;;;;;;;5.60;5.30;;;;;;;23.94;68.47;99841.53;6169711;23;20138;-68
2023/07/29 09:36:10;;;;;;;5.90;5.60;;;;;;;23.86;66.33;99754.03;6143133;23;20050;-71
2023/07/29 09:38:39;;;;;;;;;;;;;;;23.17;65.39;99684.81;6172204;23;20050;-71
2023/07/29 09:41:05;;;;;;;7.28;6.88;;;;;;;22.36;67.78;99687.34;6179213;23;19953;-72
2023/07/29 09:43:34;;;;;;;6.10;5.80;;;;;;;22.09;70.09;99746.50;6163050;23;20016;-72
2023/07/29 09:46:06;;;;;;;6.30;5.90;;;;;;;22.36;72.41;99864.59;6142914;23;20028;-71
2023/07/29 09:48:35;;;;;;;5.90;5.60;;;;;;;22.30;71.90;99868.81;6169743;23;20128;-72
2023/07/29 09:51:11;;;;;;;5.75;5.45;;;;;;;22.02;71.79;99795.47;6150737;23;20025;-72
2023/07/29 09:53:46;;;;;;;5.70;5.40;;;;;;;22.95;70.76;99887.22;6165806;23;20619;-72
2023/07/29 09:56:14;;;;;;;5.72;5.38;;;;;;;22.87;69.27;99834.59;6174438;23;20643;-71
2023/07/29 09:58:43;;;;;;;5.80;5.50;;;;;;;22.76;68.91;99778.88;6170368;23;20029;-71
2023/07/29 10:01:10;;;;;;;6.05;5.65;;;;;;;22.75;68.40;99766.50;6152135;23;20080;-72
2023/07/29 10:03:36;;;;;;;6.15;5.75;;;;;;;22.94;85.25;99865.00;6169661;23;20077;-71
2023/07/29 10:06:05;;;;;;;6.00;5.70;;;;;;;23.18;64.65;99863.97;6141553;23;20029;-71
2023/07/29 10:08:40;;;;;;;6.13;5.82;;;;;;;23.05;69.67;99859.25;6161729;23;20056;-72
2023/07/29 10:11:09;;;;;;;5.82;5.53;;;;;;;23.06;71.37;99908.25;6134864;23;20052;-71
2023/07/29 10:13:37;;;;;;;6.10;5.70;;;;;;;22.71;71.42;99859.66;6161195;23;20036;-70
2023/07/29 10:16:07;;;;;;;5.70;5.40;;;;;;;23.22;71.25;99907.25;6168373;23;20013;-71
2023/07/29 10:18:34;;;;;;;5.88;5.57;;;;;;;22.74;70.00;99837.91;6166005;23;20024;-70
2023/07/29 10:21:02;;;;;;;6.28;5.88;;;;;;;22.85;71.98;99909.72;6170282;23;20036;-71
2023/07/29 10:23:37;;;;;;;6.15;5.85;;;;;;;23.28;71.34;99933.31;6168497;23;20100;-71
2023/07/29 10:26:05;;;;;;;5.75;5.45;;;;;;;23.48;69.28;99886.25;6153374;23;20025;-74
2023/07/29 10:28:32;;;;;;;5.88;5.57;;;;;;;23.47;67.42;99816.78;6173061;23;20034;-71
2023/07/29 10:30:59;;;;;;;6.10;5.53;;;;;;;23.89;68.17;99890.31;6150424;23;20008;-71
2023/07/29 10:33:30;;;;;;;6.18;5.88;;;;;;;22.67;68.60;99696.06;6169185;23;20083;-71
2023/07/29 10:35:56;;;;;;;6.28;5.88;;;;;;;23.68;66.13;99779.34;6147855;23;20094;-71
2023/07/29 10:38:24;;;;;;;6.07;5.78;;;;;;;23.55;68.14;99856.03;6172942;23;20040;-71
2023/07/29 10:41:01;;;;;;;5.85;5.55;;;;;;;23.37;70.08;99905.41;6175762;23;20029;-73
2023/07/29 10:43:33;;;;;;;5.80;5.50;;;;;;;23.17;69.23;99845.41;6168598;23;20045;-71
2023/07/29 10:46:20;;;;;;;6.00;5.70;;;;;;;23.48;69.28;99899.63;6175231;23;20031;-71
2023/07/29 10:48:56;;;;;;;6.00;5.70;;;;;;;23.18;68.70;99837.19;6171256;23;20051;-71
2023/07/29 10:51:32;;;;;;;5.75;5.45;;;;;;;22.73;70.45;99838.09;6165630;23;20045;-71
2023/07/29 10:54:09;;;;;;;5.70;5.40;;;;;;;23.88;70.14;99936.91;6175464;23;20076;-71
2023/07/29 10:56:39;;;;;;;6.00;5.70;;;;;;;24.17;65.68;99804.66;6145004;23;20024;-70
2023/07/29 10:59:12;;;;;;;6.13;5.60;;;;;;;24.65;65.37;99844.34;6155744;23;20036;-71
2023/07/29 11:01:40;;;;;;;5.90;5.60;;;;;;;24.53;62.96;99725.19;6143648;23;20033;-71
2023/07/29 11:04:19;;;;;;;6.10;5.70;;;;;;;25.44;62.58;99822.66;6156925;23;20357;-70
2023/07/29 11:07:04;;;;;;;5.90;5.60;;;;;;;25.67;59.85;99752.44;6173723;23;20032;-71
2023/07/29 11:09:49;;;;;;;6.05;5.75;;;;;;;25.96;59.02;99723.63;6169280;23;20103;-71
2023/07/29 11:12:37;;;;;;;5.93;5.63;;;;;;;26.26;56.79;99669.44;6174209;23;20012;-71
2023/07/29 11:15:14;;;;;;;6.25;5.88;;;;;;;25.98;56.58;99642.75;6142055;23;20036;-71
2023/07/29 11:17:47;;;;;;;6.13;5.63;;;;;;;25.31;56.70;99577.34;6171679;23;20052;-71
2023/07/29 11:20:15;;;;;;;6.22;5.72;;;;;;;25.27;57.84;99666.34;6153285;23;20402;-73
2023/07/29 11:22:42;;;;;;;6.53;6.13;;;;;;;25.21;58.47;99714.66;6175074;23;20035;-70
2023/07/29 11:25:13;;;;;;;6.50;5.90;;;;;;;25.20;60.34;99782.81;6148484;23;20522;-70
2023/07/29 11:27:40;;;;;;;6.15;5.85;;;;;;;24.67;62.75;99821.66;6172055;23;20033;-70